createdAt,value
2022-12-23T00:01:27.717Z,192.98
2022-12-23T00:03:58.424Z,165.73
2022-12-23T00:06:25.480Z,154.02
2022-12-23T00:08:58.447Z,159.55
2022-12-23T00:11:27.639Z,168.68
2022-12-23T00:14:20.636Z,159.73
2022-12-23T00:16:50.304Z,166.90
2022-12-23T00:19:17.264Z,189.63
2022-12-23T00:21:44.092Z,234.63
2022-12-23T00:24:12.054Z,198.30
2022-12-23T00:26:39.086Z,233.50
2022-12-23T00:29:05.890Z,219.43
2022-12-23T00:31:32.736Z,217.70
2022-12-23T00:33:59.587Z,213.88
2022-12-23T00:36:28.787Z,217.85
2022-12-23T00:39:15.811Z,204.10
2022-12-23T00:42:01.168Z,214.50
2022-12-23T00:44:28.262Z,224.15
2022-12-23T00:46:55.036Z,236.23
2022-12-23T00:49:40.485Z,242.27
2022-12-23T00:52:09.096Z,190.90
2022-12-23T00:54:36.555Z,187.10
2022-12-23T00:57:03.887Z,182.77
2022-12-23T00:59:30.737Z,201.63
2022-12-23T01:02:16.388Z,180.48
2022-12-23T01:05:02.078Z,179.25
2022-12-23T01:07:29.043Z,191.73
2022-12-23T01:09:55.790Z,199.20
2022-12-23T01:12:23.038Z,204.63
2022-12-23T01:14:49.841Z,194.88
2022-12-23T01:17:16.682Z,215.82
2022-12-23T01:19:43.614Z,159.82
2022-12-23T01:22:10.448Z,193.65
2022-12-23T01:24:37.342Z,199.75
2022-12-23T01:27:04.149Z,181.52
2022-12-23T01:29:31.034Z,182.00
2022-12-23T01:31:57.914Z,176.60
2022-12-23T01:34:24.775Z,157.85
2022-12-23T01:36:51.622Z,200.55
2022-12-23T01:39:18.511Z,192.60
2022-12-23T01:42:03.993Z,167.30
2022-12-23T01:44:49.501Z,170.60
2022-12-23T01:47:44.967Z,174.65
2022-12-23T01:50:19.922Z,178.93
2022-12-23T01:52:56.154Z,221.68
2022-12-23T01:55:27.281Z,173.55
2022-12-23T01:57:59.794Z,162.43
2022-12-23T02:00:45.178Z,180.10
2022-12-23T02:03:30.917Z,164.88
2022-12-23T02:06:18.712Z,245.27
2022-12-23T02:09:04.151Z,238.82
2022-12-23T02:11:52.282Z,159.85
2022-12-23T02:15:05.840Z,99.15
2022-12-23T02:18:05.687Z,150.48
2022-12-23T02:21:06.908Z,129.27
2022-12-23T02:23:52.371Z,165.25
2022-12-23T02:26:56.420Z,105.45
2022-12-23T02:29:51.087Z,168.85
2022-12-23T02:32:40.453Z,124.15
2022-12-23T02:35:14.812Z,165.98
2022-12-23T02:37:55.672Z,180.55
2022-12-23T02:40:32.211Z,125.40
2022-12-23T02:43:19.365Z,155.77
2022-12-23T02:46:15.091Z,91.05
2022-12-23T02:48:54.437Z,65.68
2022-12-23T02:51:24.862Z,81.45
2022-12-23T02:53:57.537Z,106.47
2022-12-23T02:56:27.333Z,106.45
2022-12-23T02:59:09.595Z,103.95
2022-12-23T03:01:39.011Z,128.68
2022-12-23T03:04:06.868Z,103.57
2022-12-23T03:06:39.501Z,76.93
2022-12-23T03:09:07.278Z,78.25
2022-12-23T03:11:49.459Z,96.43
2022-12-23T03:14:36.258Z,152.73
2022-12-23T03:17:27.501Z,93.72
2022-12-23T03:20:09.259Z,102.88
2022-12-23T03:22:41.932Z,130.85
2022-12-23T03:25:19.875Z,73.05
2022-12-23T03:27:56.772Z,79.25
2022-12-23T03:30:24.609Z,107.95
2022-12-23T03:33:07.208Z,86.35
2022-12-23T03:35:40.644Z,57.42
2022-12-23T03:38:11.510Z,92.95
2022-12-23T03:41:00.757Z,68.55
2022-12-23T03:43:33.082Z,135.77
2022-12-23T03:46:06.075Z,84.28
2022-12-23T03:48:38.840Z,54.47
2022-12-23T03:51:12.444Z,62.25
2022-12-23T03:53:49.262Z,65.28
2022-12-23T03:56:26.254Z,56.25
2022-12-23T03:59:00.055Z,67.45
2022-12-23T04:01:49.073Z,88.47
2022-12-23T04:04:29.916Z,69.88
2022-12-23T04:07:07.586Z,62.20
2022-12-23T04:09:35.637Z,61.25
2022-12-23T04:12:02.970Z,69.10
2022-12-23T04:14:30.637Z,48.13
2022-12-23T04:16:59.341Z,74.28
2022-12-23T04:19:26.360Z,72.20
2022-12-23T04:21:57.835Z,46.60
2022-12-23T04:24:24.757Z,48.85
2022-12-23T04:26:51.520Z,118.15
2022-12-23T04:29:18.359Z,70.15
2022-12-23T04:31:45.127Z,66.90
2022-12-23T04:34:12.102Z,55.28
2022-12-23T04:36:38.842Z,70.65
2022-12-23T04:39:05.715Z,77.45
2022-12-23T04:41:32.511Z,117.25
2022-12-23T04:43:59.349Z,87.80
2022-12-23T04:46:26.321Z,86.78
2022-12-23T04:48:53.169Z,70.43
2022-12-23T04:51:20.167Z,58.90
2022-12-23T04:53:46.915Z,67.50
2022-12-23T04:56:13.686Z,56.17
2022-12-23T04:58:40.785Z,132.65
2022-12-23T05:01:10.033Z,75.38
2022-12-23T05:03:37.879Z,51.63
2022-12-23T05:06:05.819Z,68.22
2022-12-23T05:08:32.989Z,125.28
2022-12-23T05:10:59.885Z,55.47
2022-12-23T05:13:26.996Z,60.88
2022-12-23T05:15:54.646Z,62.80
2022-12-23T05:18:22.224Z,74.63
2022-12-23T05:20:49.540Z,63.13
2022-12-23T05:23:16.373Z,63.75
2022-12-23T05:25:43.188Z,48.55
2022-12-23T05:28:10.411Z,51.20
2022-12-23T05:30:37.217Z,67.47
2022-12-23T05:33:04.010Z,46.63
2022-12-23T05:35:30.824Z,50.17
2022-12-23T05:37:57.876Z,41.13
2022-12-23T05:40:28.481Z,38.78
2022-12-23T05:42:59.268Z,47.60
2022-12-23T05:45:26.112Z,38.15
2022-12-23T05:47:53.023Z,43.45
2022-12-23T05:50:19.817Z,42.90
2022-12-23T05:52:48.714Z,42.30
2022-12-23T05:55:15.543Z,44.28
2022-12-23T05:57:42.399Z,39.92
2022-12-23T06:00:10.057Z,42.35
2022-12-23T06:02:40.526Z,38.63
2022-12-23T06:05:07.884Z,44.22
2022-12-23T06:07:34.703Z,61.03
2022-12-23T06:10:01.499Z,45.65
2022-12-23T06:12:28.309Z,44.08
2022-12-23T06:14:55.143Z,45.03
2022-12-23T06:17:21.989Z,39.55
2022-12-23T06:19:48.889Z,38.92
2022-12-23T06:22:16.385Z,42.13
2022-12-23T06:24:43.741Z,42.38
2022-12-23T06:27:10.999Z,41.22
2022-12-23T06:29:37.971Z,38.35
2022-12-23T06:32:05.193Z,39.10
2022-12-23T06:34:32.104Z,36.45
2022-12-23T06:36:59.317Z,43.05
2022-12-23T06:39:26.639Z,42.70
2022-12-23T06:41:53.373Z,39.53
2022-12-23T06:44:20.452Z,45.75
2022-12-23T06:46:47.251Z,43.13
2022-12-23T06:49:14.210Z,50.40
2022-12-23T06:51:41.310Z,50.42
2022-12-23T06:54:11.424Z,51.38
2022-12-23T06:59:05.834Z,60.38
2022-12-23T07:01:33.698Z,68.18
2022-12-23T07:04:00.608Z,67.07
2022-12-23T07:06:27.439Z,67.22
2022-12-23T07:08:54.324Z,62.70
2022-12-23T07:11:21.053Z,57.33
2022-12-23T07:13:57.580Z,66.32
2022-12-23T07:16:24.419Z,52.38
2022-12-23T07:18:51.201Z,58.45
2022-12-23T07:21:24.826Z,54.35
2022-12-23T07:23:55.665Z,56.00
2022-12-23T07:26:22.595Z,87.05
2022-12-23T07:28:49.346Z,63.58
2022-12-23T07:31:16.390Z,79.03
2022-12-23T07:33:43.410Z,62.28
2022-12-23T07:36:10.363Z,67.40
2022-12-23T07:38:37.260Z,63.55
2022-12-23T07:41:04.160Z,64.93
2022-12-23T07:43:31.070Z,61.40
2022-12-23T07:46:00.821Z,54.85
2022-12-23T07:48:28.419Z,62.22
2022-12-23T07:51:01.721Z,51.45
2022-12-23T07:53:28.800Z,61.95
2022-12-23T07:55:56.794Z,60.10
2022-12-23T07:58:24.225Z,66.07
2022-12-23T08:00:54.819Z,72.60
2022-12-23T08:03:29.618Z,63.22
2022-12-23T08:06:06.159Z,67.03
2022-12-23T08:08:33.350Z,67.70
2022-12-23T08:11:02.927Z,69.50
2022-12-23T08:13:30.644Z,71.53
2022-12-23T08:15:59.709Z,58.80
2022-12-23T08:18:29.756Z,62.88
2022-12-23T08:21:01.683Z,66.32
2022-12-23T08:23:29.918Z,69.72
2022-12-23T08:26:19.412Z,63.70
2022-12-23T08:28:46.371Z,68.78
2022-12-23T08:31:18.384Z,63.67
2022-12-23T08:33:48.437Z,74.22
2022-12-23T08:36:22.782Z,65.55
2022-12-23T08:38:52.440Z,69.72
2022-12-23T08:41:25.905Z,67.35
2022-12-23T08:43:53.231Z,70.43
2022-12-23T08:46:20.653Z,66.55
2022-12-23T08:48:49.747Z,68.20
2022-12-23T08:51:19.615Z,73.60
2022-12-23T08:53:47.341Z,72.60
2022-12-23T08:56:18.702Z,76.10
2022-12-23T08:58:47.179Z,70.97
2022-12-23T09:01:16.337Z,78.57
2022-12-23T09:03:44.514Z,76.13
2022-12-23T09:06:16.678Z,77.53
2022-12-23T09:08:43.933Z,80.07
2022-12-23T09:11:13.309Z,71.57
2022-12-23T09:13:40.593Z,79.03
2022-12-23T09:16:08.141Z,77.25
2022-12-23T09:18:35.517Z,70.00
2022-12-23T09:21:14.011Z,79.07
2022-12-23T09:23:41.524Z,70.68
2022-12-23T09:26:09.337Z,65.28
2022-12-23T09:28:36.443Z,60.42
2022-12-23T09:31:08.974Z,63.28
2022-12-23T09:33:36.256Z,66.65
2022-12-23T09:36:04.242Z,71.55
2022-12-23T09:38:31.798Z,70.28
2022-12-23T09:41:13.080Z,67.25
2022-12-23T09:43:53.186Z,53.47
2022-12-23T09:49:03.107Z,56.80
2022-12-23T09:51:31.541Z,53.22
2022-12-23T09:54:17.452Z,54.95
2022-12-23T09:56:51.328Z,58.28
2022-12-23T09:59:55.951Z,56.17
2022-12-23T10:03:06.845Z,54.55
2022-12-23T10:06:04.008Z,54.95
2022-12-23T10:08:38.322Z,54.60
2022-12-23T10:11:15.931Z,53.60
2022-12-23T10:13:50.352Z,47.28
2022-12-23T10:16:21.632Z,50.95
2022-12-23T10:19:01.781Z,46.33
2022-12-23T10:24:45.277Z,46.75
2022-12-23T10:27:48.973Z,43.83
2022-12-23T10:33:22.995Z,47.20
2022-12-23T10:36:04.450Z,45.75
2022-12-23T10:38:42.940Z,44.42
2022-12-23T10:41:22.890Z,43.95
2022-12-23T10:44:04.284Z,42.03
2022-12-23T10:46:44.927Z,42.85
2022-12-23T10:49:30.910Z,38.95
2022-12-23T10:52:03.777Z,40.80
2022-12-23T10:54:35.691Z,36.38
2022-12-23T10:57:04.713Z,37.33
2022-12-23T10:59:34.674Z,39.15
2022-12-23T11:02:13.759Z,38.10
2022-12-23T11:04:43.402Z,38.63
2022-12-23T11:10:16.384Z,33.28
2022-12-23T11:12:47.502Z,32.25
2022-12-23T11:15:27.447Z,32.90
2022-12-23T11:18:18.505Z,29.43
2022-12-23T11:21:00.977Z,27.30
2022-12-23T11:23:31.001Z,25.02
2022-12-23T11:26:06.949Z,23.08
2022-12-23T11:28:38.052Z,20.15
2022-12-23T11:31:12.314Z,20.40
2022-12-23T11:33:56.054Z,20.55
2022-12-23T11:36:25.146Z,20.23
2022-12-23T11:39:04.041Z,20.10
2022-12-23T11:41:41.386Z,16.25
2022-12-23T11:44:43.232Z,17.10
2022-12-23T11:47:22.271Z,18.20
2022-12-23T11:50:01.259Z,18.30
2022-12-23T11:52:30.727Z,16.42
2022-12-23T11:55:05.638Z,16.38
2022-12-23T11:57:47.981Z,16.88
2022-12-23T12:00:34.705Z,16.98
2022-12-23T12:03:03.704Z,18.25
2022-12-23T12:05:37.601Z,18.45
2022-12-23T12:08:09.912Z,19.27
2022-12-23T12:10:39.223Z,18.45
2022-12-23T12:13:20.615Z,19.67
2022-12-23T12:15:57.875Z,21.75
2022-12-23T12:18:26.001Z,22.65
2022-12-23T12:21:00.912Z,22.65
2022-12-23T12:23:35.617Z,21.67
2022-12-23T12:26:12.485Z,18.80
2022-12-23T12:28:43.179Z,20.40
2022-12-23T12:31:18.993Z,42.42
2022-12-23T12:34:05.940Z,19.33
2022-12-23T12:36:55.721Z,23.45
2022-12-23T12:39:43.336Z,28.13
2022-12-23T12:42:44.746Z,91.85
2022-12-23T12:45:25.000Z,26.85
2022-12-23T12:48:22.930Z,27.17
2022-12-23T12:51:21.092Z,32.58
2022-12-23T12:54:04.651Z,39.40
2022-12-23T12:56:45.440Z,34.90
2022-12-23T12:59:17.868Z,26.20
2022-12-23T13:02:02.455Z,26.48
2022-12-23T13:04:35.174Z,21.90
2022-12-23T13:07:24.439Z,22.75
2022-12-23T13:10:09.475Z,23.60
2022-12-23T13:12:46.093Z,24.20
2022-12-23T13:15:29.653Z,22.20
2022-12-23T13:18:12.099Z,23.05
2022-12-23T13:20:48.592Z,25.30
2022-12-23T13:23:44.164Z,25.20
2022-12-23T13:26:24.615Z,25.25
2022-12-23T13:29:27.969Z,26.30
2022-12-23T13:32:30.033Z,25.15
2022-12-23T13:35:02.672Z,25.15
2022-12-23T13:38:08.020Z,23.40
2022-12-23T13:40:59.842Z,25.02
2022-12-23T13:43:37.251Z,23.42
2022-12-23T13:46:12.824Z,23.77
2022-12-23T13:48:48.699Z,28.95
2022-12-23T13:51:35.908Z,42.33
2022-12-23T13:54:20.789Z,33.55
2022-12-23T13:56:55.468Z,31.80
2022-12-23T13:59:22.353Z,25.45
2022-12-23T14:01:52.558Z,24.88
2022-12-23T14:04:54.532Z,26.35
2022-12-23T14:07:23.196Z,27.67
2022-12-23T14:09:59.636Z,27.58
2022-12-23T14:12:35.647Z,25.80
2022-12-23T14:15:26.478Z,31.23
2022-12-23T14:18:15.113Z,26.13
2022-12-23T14:20:51.282Z,25.27
2022-12-23T14:24:02.489Z,25.20
2022-12-23T14:26:43.030Z,24.67
2022-12-23T14:29:29.782Z,25.50
2022-12-23T14:31:58.402Z,25.33
2022-12-23T14:34:30.340Z,25.35
2022-12-23T14:37:24.204Z,30.33
2022-12-23T14:39:52.586Z,27.60
2022-12-23T14:42:39.849Z,26.13
2022-12-23T14:45:30.239Z,27.48
2022-12-23T14:47:57.262Z,29.52
2022-12-23T14:50:34.042Z,30.08
2022-12-23T14:53:22.830Z,30.60
2022-12-23T14:55:51.365Z,27.38
2022-12-23T14:58:18.075Z,30.90
2022-12-23T15:00:50.981Z,28.63
2022-12-23T15:03:20.332Z,29.05
2022-12-23T15:05:47.489Z,28.73
2022-12-23T15:08:33.283Z,35.83
2022-12-23T15:11:00.097Z,40.20
2022-12-23T15:13:28.802Z,35.80
2022-12-23T15:16:01.457Z,35.88
2022-12-23T15:18:29.358Z,30.45
2022-12-23T15:21:04.833Z,33.22
2022-12-23T15:23:33.347Z,31.55
2022-12-23T15:26:01.548Z,42.67
2022-12-23T15:28:39.568Z,45.10
2022-12-23T15:31:11.007Z,38.28
2022-12-23T15:36:37.721Z,39.00
2022-12-23T15:39:09.821Z,37.35
2022-12-23T15:41:47.307Z,42.58
2022-12-23T15:44:22.529Z,43.10
2022-12-23T15:46:50.952Z,37.83
2022-12-23T15:49:20.467Z,45.58
2022-12-23T15:52:16.594Z,43.10
2022-12-23T15:54:54.169Z,33.22
2022-12-23T15:57:24.469Z,37.97
2022-12-23T15:59:51.583Z,31.52
2022-12-23T16:05:33.822Z,27.45
2022-12-23T16:08:16.426Z,30.25
2022-12-23T16:11:04.395Z,31.33
2022-12-23T16:13:31.717Z,31.98
2022-12-23T16:16:18.624Z,28.83
2022-12-23T16:18:47.870Z,28.35
2022-12-23T16:21:15.440Z,36.75
2022-12-23T16:23:50.635Z,36.28
2022-12-23T16:26:17.689Z,32.40
2022-12-23T16:28:49.500Z,30.63
2022-12-23T16:31:18.201Z,32.05
2022-12-23T16:33:49.927Z,36.53
2022-12-23T16:36:19.798Z,30.77
2022-12-23T16:38:48.163Z,35.78
2022-12-23T16:41:15.128Z,34.40
2022-12-23T16:43:51.308Z,35.67
2022-12-23T16:46:21.331Z,34.15
2022-12-23T16:48:51.295Z,34.50
2022-12-23T16:51:20.831Z,35.38
2022-12-23T16:53:48.854Z,37.17
2022-12-23T16:56:18.264Z,34.25
2022-12-23T16:58:45.220Z,34.45
2022-12-23T17:01:15.212Z,32.78
2022-12-23T17:06:14.455Z,31.55
2022-12-23T17:08:42.034Z,28.95
2022-12-23T17:11:18.400Z,30.75
2022-12-23T17:13:45.733Z,28.73
2022-12-23T17:16:20.072Z,29.67
2022-12-23T17:18:48.652Z,30.50
2022-12-23T17:21:23.426Z,30.48
2022-12-23T17:23:56.841Z,36.35
2022-12-23T17:26:23.603Z,36.75
2022-12-23T17:28:50.523Z,41.33
2022-12-23T17:31:26.263Z,42.60
2022-12-23T17:33:54.532Z,43.90
2022-12-23T17:36:21.595Z,42.10
2022-12-23T17:38:48.424Z,39.42
2022-12-23T17:41:29.818Z,37.65
2022-12-23T17:43:57.026Z,43.33
2022-12-23T17:46:24.683Z,45.72
2022-12-23T17:48:51.497Z,48.97
2022-12-23T17:51:21.000Z,49.70
2022-12-23T17:53:55.181Z,55.17
2022-12-23T17:56:26.530Z,51.38
2022-12-23T17:58:53.885Z,48.58
2022-12-23T18:01:32.112Z,48.38
2022-12-23T18:04:00.070Z,43.72
2022-12-23T18:06:28.495Z,47.28
2022-12-23T18:08:59.021Z,46.95
2022-12-23T18:11:38.134Z,43.70
2022-12-23T18:14:05.131Z,45.33
2022-12-23T18:16:32.026Z,41.00
2022-12-23T18:18:58.907Z,37.17
2022-12-23T18:21:29.300Z,41.63
2022-12-23T18:23:58.774Z,41.67
2022-12-23T18:26:25.855Z,37.63
2022-12-23T18:28:54.386Z,39.05
2022-12-23T18:31:27.377Z,39.60
2022-12-23T18:33:54.504Z,35.10
2022-12-23T18:36:30.512Z,37.35
2022-12-23T18:38:57.694Z,35.05
2022-12-23T18:41:25.588Z,39.65
2022-12-23T18:43:53.426Z,38.13
2022-12-23T18:46:20.661Z,39.13
2022-12-23T18:48:48.054Z,38.85
2022-12-23T18:51:16.964Z,40.38
2022-12-23T18:53:45.320Z,41.30
2022-12-23T18:56:16.718Z,37.33
2022-12-23T18:58:43.574Z,39.10
2022-12-23T19:01:15.012Z,39.47
2022-12-23T19:03:42.359Z,39.90
2022-12-23T19:06:12.417Z,36.45
2022-12-23T19:11:15.523Z,38.42
2022-12-23T19:13:42.385Z,36.47
2022-12-23T19:16:13.484Z,42.67
2022-12-23T19:18:40.322Z,40.97
2022-12-23T19:21:07.037Z,37.50
2022-12-23T19:23:33.828Z,41.10
2022-12-23T19:26:00.577Z,42.78
2022-12-23T19:28:27.552Z,40.75
2022-12-23T19:30:54.397Z,33.80
2022-12-23T19:33:21.145Z,35.95
2022-12-23T19:35:47.911Z,41.28
2022-12-23T19:38:14.714Z,39.67
2022-12-23T19:40:41.672Z,38.78
2022-12-23T19:43:08.425Z,41.45
2022-12-23T19:45:35.165Z,39.05
2022-12-23T19:48:01.971Z,37.58
2022-12-23T19:50:28.803Z,41.15
2022-12-23T19:52:56.487Z,39.80
2022-12-23T19:55:24.170Z,32.97
2022-12-23T19:57:52.335Z,36.95
2022-12-23T20:00:19.327Z,34.53
2022-12-23T20:02:46.197Z,35.92
2022-12-23T20:05:12.977Z,35.17
2022-12-23T20:07:39.705Z,37.13
2022-12-23T20:10:07.597Z,37.05
2022-12-23T20:12:34.431Z,36.97
2022-12-23T20:15:01.222Z,39.63
2022-12-23T20:17:27.980Z,36.00
2022-12-23T20:19:54.727Z,35.88
2022-12-23T20:22:21.830Z,42.20
2022-12-23T20:24:49.035Z,35.47
2022-12-23T20:27:16.345Z,35.25
2022-12-23T20:29:44.365Z,35.50
2022-12-23T20:32:11.069Z,35.50
2022-12-23T20:34:40.085Z,42.00
2022-12-23T20:37:07.758Z,42.03
2022-12-23T20:39:35.220Z,33.88
2022-12-23T20:42:02.113Z,32.63
2022-12-23T20:44:37.319Z,31.92
2022-12-23T20:47:06.176Z,34.33
2022-12-23T20:49:33.377Z,42.72
2022-12-23T20:52:00.377Z,38.42
2022-12-23T20:54:32.757Z,42.33
2022-12-23T20:57:01.446Z,36.38
2022-12-23T20:59:28.298Z,31.25
2022-12-23T21:01:55.366Z,35.05
2022-12-23T21:04:22.847Z,32.47
2022-12-23T21:06:49.839Z,29.75
2022-12-23T21:09:17.398Z,32.85
2022-12-23T21:11:46.436Z,34.20
2022-12-23T21:14:14.545Z,23.05
2022-12-23T21:16:41.773Z,30.33
2022-12-23T21:19:13.076Z,118.38
2022-12-23T21:21:39.870Z,80.13
2022-12-23T21:24:06.773Z,79.85
2022-12-23T21:26:34.601Z,45.25
2022-12-23T21:29:04.775Z,46.85
2022-12-23T21:31:33.494Z,32.35
2022-12-23T21:34:00.393Z,27.75
2022-12-23T21:36:31.257Z,30.85
2022-12-23T21:38:59.256Z,26.63
2022-12-23T21:41:31.786Z,26.02
2022-12-23T21:44:00.279Z,23.55
2022-12-23T21:46:28.263Z,15.15
2022-12-23T21:48:56.672Z,18.25
2022-12-23T21:51:26.608Z,15.57
2022-12-23T21:56:24.387Z,14.55
2022-12-23T21:58:56.052Z,15.73
2022-12-23T22:01:23.576Z,14.55
2022-12-23T22:03:51.928Z,14.63
2022-12-23T22:06:21.355Z,13.05
2022-12-23T22:08:48.466Z,11.27
2022-12-23T22:11:21.262Z,11.45
2022-12-23T22:13:48.355Z,10.98
2022-12-23T22:16:20.775Z,13.13
2022-12-23T22:18:48.187Z,13.70
2022-12-23T22:21:22.962Z,12.65
2022-12-23T22:23:51.278Z,16.85
2022-12-23T22:26:25.300Z,17.63
2022-12-23T22:28:55.211Z,20.40
2022-12-23T22:31:43.296Z,15.68
2022-12-23T22:34:14.692Z,13.07
2022-12-23T22:36:41.928Z,14.10
2022-12-23T22:39:12.962Z,17.85
2022-12-23T22:41:42.792Z,15.35
2022-12-23T22:44:11.511Z,15.95
2022-12-23T22:46:38.357Z,12.50
2022-12-23T22:49:05.119Z,13.88
2022-12-23T22:51:32.225Z,14.57
2022-12-23T22:53:59.820Z,15.05
2022-12-23T22:56:26.761Z,11.27
2022-12-23T22:58:55.115Z,11.43
2022-12-23T23:01:34.616Z,11.45
2022-12-23T23:04:03.441Z,10.55
2022-12-23T23:06:31.412Z,10.40
2022-12-23T23:08:58.635Z,14.13
2022-12-23T23:11:27.165Z,10.18
2022-12-23T23:13:54.961Z,12.35
2022-12-23T23:16:22.316Z,11.65
2022-12-23T23:18:49.782Z,13.30
2022-12-23T23:21:17.007Z,13.73
2022-12-23T23:23:43.927Z,12.50
2022-12-23T23:26:11.071Z,13.13
2022-12-23T23:28:39.570Z,16.60
2022-12-23T23:31:40.486Z,14.95
2022-12-23T23:33:54.441Z,19.25
2022-12-23T23:36:21.400Z,22.95
2022-12-23T23:38:48.317Z,29.10
2022-12-23T23:41:18.915Z,23.23
2022-12-23T23:43:49.632Z,16.90
2022-12-23T23:46:16.407Z,12.35
2022-12-23T23:48:43.182Z,13.07
2022-12-23T23:51:09.979Z,12.43
2022-12-23T23:53:36.838Z,12.05
2022-12-23T23:56:08.189Z,13.60
2022-12-23T23:58:36.208Z,12.18
